Time;durP1;ratioP1;P1;durP2;ratioP2;P2;SDS_P1;SDS_P2;PMS_P1;PMS_P2;Temp;Humidity;BMP_temperature;BMP_pressure;BME280_temperature;BME280_humidity;BME280_pressure;Samples;Min_cycle;Max_cycle;Signal;HPM_P1;HPM_P2
2022/07/26 00:01:11;;;;;;;155.82;148.02;;;;;;;;;;5044294;28;20410;-62
2022/07/26 00:03:36;;;;;;;147.40;139.98;;;;;;;;;;5037704;28;20086;-62
2022/07/26 00:06:01;;;;;;;156.20;148.45;;;;;;;;;;5042213;28;20113;-62
2022/07/26 00:08:27;;;;;;;165.68;157.27;;;;;;;;;;5041115;28;20302;-62
2022/07/26 00:10:52;;;;;;;157.70;149.80;;;;;;;;;;5045271;28;20040;-62
2022/07/26 00:13:20;;;;;;;165.57;157.32;;;;;;;;;;5034495;28;20057;-62
2022/07/26 00:15:47;;;;;;;175.30;166.57;;;;;;;;;;5042503;28;20405;-62
2022/07/26 00:18:12;;;;;;;167.23;158.93;;;;;;;;;;5041544;28;20087;-62
2022/07/26 00:20:39;;;;;;;172.00;163.48;;;;;;;;;;5035706;28;20037;-58
2022/07/26 00:23:04;;;;;;;162.77;154.63;;;;;;;;;;5036242;28;20029;-59
2022/07/26 00:25:29;;;;;;;167.93;159.52;;;;;;;;;;5044658;28;20051;-58
2022/07/26 00:27:55;;;;;;;170.75;162.20;;;;;;;;;;5042756;28;20117;-59
2022/07/26 00:30:21;;;;;;;169.70;161.20;;;;;;;;;;5038546;28;20037;-58
2022/07/26 00:32:46;;;;;;;171.95;163.43;;;;;;;;;;5044403;28;20060;-59
2022/07/26 00:35:12;;;;;;;171.45;162.88;;;;;;;;;;5038483;28;20026;-58
2022/07/26 00:37:38;;;;;;;151.05;143.45;;;;;;;;;;5035897;28;20028;-59
2022/07/26 00:40:05;;;;;;;163.10;154.98;;;;;;;;;;5042426;28;20419;-59
2022/07/26 00:42:30;;;;;;;138.15;131.20;;;;;;;;;;5044452;28;20029;-58
2022/07/26 00:44:55;;;;;;;147.02;139.68;;;;;;;;;;5038323;28;20032;-58
2022/07/26 00:47:21;;;;;;;129.35;122.85;;;;;;;;;;5038398;28;20044;-58
2022/07/26 00:49:46;;;;;;;116.22;110.25;;;;;;;;;;5040820;28;20048;-58
2022/07/26 00:52:13;;;;;;;119.68;113.53;;;;;;;;;;5040971;28;20025;-58
2022/07/26 00:54:42;;;;;;;121.43;115.35;;;;;;;;;;5043529;28;20025;-58
2022/07/26 00:57:08;;;;;;;126.68;120.28;;;;;;;;;;5041596;28;20086;-58
2022/07/26 00:59:33;;;;;;;142.35;135.20;;;;;;;;;;5042508;28;20116;-58
2022/07/26 01:01:59;;;;;;;135.52;128.73;;;;;;;;;;5046372;28;20033;-58
2022/07/26 01:04:26;;;;;;;134.13;127.43;;;;;;;;;;5035931;28;20025;-58
2022/07/26 01:06:52;;;;;;;133.38;126.32;;;;;;;;;;5041891;28;20025;-58
2022/07/26 01:09:18;;;;;;;132.10;125.30;;;;;;;;;;5043538;28;20066;-58
2022/07/26 01:11:44;;;;;;;142.02;134.93;;;;;;;;;;5041902;28;20446;-57
2022/07/26 01:14:10;;;;;;;121.63;115.45;;;;;;;;;;5043342;28;20143;-58
2022/07/26 01:16:35;;;;;;;144.77;137.57;;;;;;;;;;5044294;28;20186;-58
2022/07/26 01:19:00;;;;;;;136.30;129.50;;;;;;;;;;5043380;28;20206;-58
2022/07/26 01:21:29;;;;;;;148.13;140.65;;;;;;;;;;5044146;28;20025;-58
2022/07/26 01:23:55;;;;;;;140.18;133.15;;;;;;;;;;5043945;28;20036;-58
2022/07/26 01:26:20;;;;;;;138.98;132.02;;;;;;;;;;5049016;28;20343;-57
2022/07/26 01:28:48;;;;;;;141.38;134.32;;;;;;;;;;5045887;28;20028;-58
2022/07/26 01:31:14;;;;;;;138.95;132.02;;;;;;;;;;5046054;28;20035;-58
2022/07/26 01:33:40;;;;;;;134.63;127.88;;;;;;;;;;5046209;28;20086;-58
2022/07/26 01:36:05;;;;;;;132.82;126.18;;;;;;;;;;5045997;28;20030;-58
2022/07/26 01:38:31;;;;;;;133.00;126.35;;;;;;;;;;5043059;28;20027;-58
2022/07/26 01:40:56;;;;;;;123.47;117.28;;;;;;;;;;5047389;28;20025;-59
2022/07/26 01:43:21;;;;;;;136.15;129.35;;;;;;;;;;5047013;28;20056;-59
2022/07/26 01:45:47;;;;;;;122.15;116.05;;;;;;;;;;5047434;28;20099;-59
2022/07/26 01:48:12;;;;;;;118.35;112.35;;;;;;;;;;5043224;28;20061;-59
2022/07/26 01:50:37;;;;;;;108.20;102.85;;;;;;;;;;5041204;28;20092;-59
2022/07/26 01:53:03;;;;;;;122.28;116.20;;;;;;;;;;5048440;28;20029;-59
2022/07/26 01:55:28;;;;;;;108.32;102.95;;;;;;;;;;5041437;28;20072;-59
2022/07/26 01:57:54;;;;;;;113.50;107.88;;;;;;;;;;5046292;28;20378;-59
2022/07/26 02:00:19;;;;;;;114.70;109.03;;;;;;;;;;5044159;28;20041;-59
2022/07/26 02:02:45;;;;;;;122.57;116.47;;;;;;;;;;5046462;28;20021;-58
2022/07/26 02:05:11;;;;;;;123.18;117.05;;;;;;;;;;5039987;28;20021;-59
2022/07/26 02:07:39;;;;;;;125.45;119.05;;;;;;;;;;5045382;28;20037;-59
2022/07/26 02:10:06;;;;;;;117.95;112.10;;;;;;;;;;5041793;28;20045;-59
2022/07/26 02:12:32;;;;;;;118.38;112.43;;;;;;;;;;5045701;28;20056;-60
2022/07/26 02:14:58;;;;;;;116.00;110.20;;;;;;;;;;5040266;28;20117;-59
2022/07/26 02:17:23;;;;;;;107.43;102.07;;;;;;;;;;5037545;28;20518;-59
2022/07/26 02:19:49;;;;;;;111.53;106.00;;;;;;;;;;5037635;28;20108;-59
2022/07/26 02:22:14;;;;;;;97.22;92.40;;;;;;;;;;5037464;28;20111;-58
2022/07/26 02:24:40;;;;;;;109.32;103.88;;;;;;;;;;5040799;28;20029;-58
2022/07/26 02:27:05;;;;;;;106.60;101.28;;;;;;;;;;5038933;28;20037;-59
2022/07/26 02:29:30;;;;;;;102.10;97.03;;;;;;;;;;5040490;28;20021;-58
2022/07/26 02:31:56;;;;;;;116.25;110.47;;;;;;;;;;5043952;28;20481;-59
2022/07/26 02:34:22;;;;;;;110.47;104.93;;;;;;;;;;5043891;28;20146;-59
2022/07/26 02:36:47;;;;;;;102.35;97.30;;;;;;;;;;5040292;28;20040;-59
2022/07/26 02:39:13;;;;;;;121.57;115.50;;;;;;;;;;5042526;28;20122;-59
2022/07/26 02:41:39;;;;;;;125.78;119.53;;;;;;;;;;5042028;28;20065;-59
2022/07/26 02:44:05;;;;;;;127.82;121.47;;;;;;;;;;5038623;28;20362;-58
2022/07/26 02:46:31;;;;;;;103.72;98.55;;;;;;;;;;5038414;28;20055;-60
2022/07/26 02:48:58;;;;;;;107.70;102.35;;;;;;;;;;5039001;28;20025;-60
2022/07/26 02:51:23;;;;;;;86.15;81.70;;;;;;;;;;5040620;28;20853;-60
2022/07/26 02:53:49;;;;;;;85.07;80.85;;;;;;;;;;5039644;28;20033;-60
2022/07/26 02:56:14;;;;;;;81.93;77.80;;;;;;;;;;5039843;28;20021;-60
2022/07/26 02:58:39;;;;;;;74.78;71.00;;;;;;;;;;5036023;28;20063;-60
2022/07/26 03:01:05;;;;;;;73.32;69.63;;;;;;;;;;5039174;28;20025;-60
2022/07/26 03:03:30;;;;;;;71.15;67.55;;;;;;;;;;5041193;28;20029;-59
2022/07/26 03:05:55;;;;;;;60.20;57.15;;;;;;;;;;5043569;28;20029;-58
2022/07/26 03:08:21;;;;;;;61.45;58.35;;;;;;;;;;5038915;28;20345;-59
2022/07/26 03:10:46;;;;;;;70.68;67.13;;;;;;;;;;5041015;28;20032;-58
2022/07/26 03:13:12;;;;;;;68.15;64.70;;;;;;;;;;5042192;28;20066;-58
2022/07/26 03:15:37;;;;;;;61.65;58.55;;;;;;;;;;5040314;28;20693;-59
2022/07/26 03:18:03;;;;;;;63.20;59.47;;;;;;;;;;5040339;28;20109;-59
2022/07/26 03:20:28;;;;;;;56.67;53.80;;;;;;;;;;5038924;28;20458;-58
2022/07/26 03:22:53;;;;;;;55.17;52.35;;;;;;;;;;5037245;28;20457;-59
2022/07/26 03:25:19;;;;;;;54.75;51.88;;;;;;;;;;5039587;28;20104;-59
2022/07/26 03:27:44;;;;;;;61.70;58.55;;;;;;;;;;5040139;28;20028;-59
2022/07/26 03:30:10;;;;;;;54.67;51.92;;;;;;;;;;5042749;28;20037;-59
2022/07/26 03:32:36;;;;;;;48.83;46.33;;;;;;;;;;5038808;28;20243;-59
2022/07/26 03:35:02;;;;;;;56.78;53.90;;;;;;;;;;5040205;28;20033;-58
2022/07/26 03:37:27;;;;;;;58.25;55.33;;;;;;;;;;5040560;28;20102;-59
2022/07/26 03:39:54;;;;;;;53.65;50.92;;;;;;;;;;5039603;28;20119;-59
2022/07/26 03:42:20;;;;;;;54.67;51.90;;;;;;;;;;5042318;28;20301;-59
2022/07/26 03:44:45;;;;;;;50.38;47.80;;;;;;;;;;5036388;28;20044;-59
2022/07/26 03:47:10;;;;;;;48.83;46.33;;;;;;;;;;5043080;28;20033;-58
2022/07/26 03:49:36;;;;;;;55.72;52.88;;;;;;;;;;5041413;28;20040;-58
2022/07/26 03:52:01;;;;;;;59.28;56.30;;;;;;;;;;5039779;28;20028;-58
2022/07/26 03:54:27;;;;;;;56.88;54.00;;;;;;;;;;5033832;28;20053;-59
2022/07/26 03:56:52;;;;;;;49.88;47.35;;;;;;;;;;5035981;28;20045;-59
2022/07/26 03:59:17;;;;;;;48.90;46.40;;;;;;;;;;5036558;28;20075;-59
2022/07/26 04:01:44;;;;;;;47.58;45.10;;;;;;;;;;5038390;28;20148;-59
2022/07/26 04:04:12;;;;;;;46.67;44.30;;;;;;;;;;5041033;28;20036;-59
2022/07/26 04:06:38;;;;;;;43.28;41.05;;;;;;;;;;5034519;28;20172;-59
2022/07/26 04:09:04;;;;;;;49.92;47.40;;;;;;;;;;5036429;28;20048;-58
2022/07/26 04:11:29;;;;;;;39.70;37.65;;;;;;;;;;5036386;28;20296;-58
2022/07/26 04:13:55;;;;;;;48.03;45.58;;;;;;;;;;5033285;28;20876;-59
2022/07/26 04:16:21;;;;;;;43.70;41.45;;;;;;;;;;5038969;28;20032;-59
2022/07/26 04:18:46;;;;;;;42.85;40.67;;;;;;;;;;5038664;28;20033;-59
2022/07/26 04:21:12;;;;;;;43.13;40.92;;;;;;;;;;5038304;28;20423;-58
2022/07/26 04:23:37;;;;;;;46.35;44.00;;;;;;;;;;5037764;28;20048;-59
2022/07/26 04:26:03;;;;;;;42.85;40.65;;;;;;;;;;5040113;28;20112;-59
2022/07/26 04:28:28;;;;;;;38.38;36.42;;;;;;;;;;5038484;28;20063;-59
2022/07/26 04:30:55;;;;;;;40.88;38.80;;;;;;;;;;5037464;28;20278;-59
2022/07/26 04:33:20;;;;;;;39.40;37.35;;;;;;;;;;5035512;28;20429;-59
2022/07/26 04:35:46;;;;;;;41.53;39.38;;;;;;;;;;5037136;28;20116;-60
2022/07/26 04:38:11;;;;;;;41.80;39.63;;;;;;;;;;5038306;28;20387;-59
2022/07/26 04:40:37;;;;;;;35.80;33.92;;;;;;;;;;5035607;28;20049;-58
2022/07/26 04:43:03;;;;;;;31.98;29.98;;;;;;;;;;5035789;28;20028;-59
2022/07/26 04:45:29;;;;;;;35.80;33.92;;;;;;;;;;5041823;28;20193;-59
2022/07/26 04:47:54;;;;;;;36.22;34.38;;;;;;;;;;5039422;28;20021;-59
2022/07/26 04:50:21;;;;;;;38.08;36.10;;;;;;;;;;5039814;28;20029;-58
2022/07/26 04:52:48;;;;;;;35.08;33.25;;;;;;;;;;5035214;28;20037;-59
2022/07/26 04:55:14;;;;;;;32.45;30.75;;;;;;;;;;5033905;28;20029;-58
2022/07/26 04:57:41;;;;;;;32.67;30.98;;;;;;;;;;5033722;28;20052;-58
2022/07/26 05:00:09;;;;;;;32.80;31.10;;;;;;;;;;5036330;28;20021;-58
2022/07/26 05:02:34;;;;;;;33.83;32.08;;;;;;;;;;5034974;28;20049;-58
2022/07/26 05:04:59;;;;;;;30.67;29.08;;;;;;;;;;5034527;28;20036;-58
2022/07/26 05:07:25;;;;;;;36.13;34.25;;;;;;;;;;5034893;28;20116;-58
2022/07/26 05:09:50;;;;;;;29.70;28.13;;;;;;;;;;5039768;28;20041;-58
2022/07/26 05:12:15;;;;;;;31.73;30.08;;;;;;;;;;5040287;28;20039;-58
2022/07/26 05:14:41;;;;;;;31.25;29.63;;;;;;;;;;5036566;28;20030;-58
2022/07/26 05:17:06;;;;;;;25.13;23.75;;;;;;;;;;5040035;28;20078;-58
2022/07/26 05:19:32;;;;;;;29.02;27.13;;;;;;;;;;5037526;28;20063;-58
2022/07/26 05:21:57;;;;;;;26.67;25.23;;;;;;;;;;5039748;28;20032;-58
2022/07/26 05:24:22;;;;;;;31.00;29.38;;;;;;;;;;5038388;28;20025;-58
2022/07/26 05:26:48;;;;;;;27.95;26.45;;;;;;;;;;5036416;28;20834;-58
2022/07/26 05:29:14;;;;;;;19.85;18.75;;;;;;;;;;5037973;28;20025;-58
2022/07/26 05:31:39;;;;;;;22.27;21.08;;;;;;;;;;5035646;28;20052;-58
2022/07/26 05:34:04;;;;;;;17.40;16.42;;;;;;;;;;5035206;28;20053;-58
2022/07/26 05:36:30;;;;;;;18.00;17.00;;;;;;;;;;5037752;28;20095;-58
2022/07/26 05:38:55;;;;;;;13.93;13.13;;;;;;;;;;5037426;28;20502;-58
2022/07/26 05:41:20;;;;;;;15.48;14.60;;;;;;;;;;5037011;28;20087;-59
2022/07/26 05:43:46;;;;;;;13.77;12.98;;;;;;;;;;5037807;28;20845;-58
2022/07/26 05:46:11;;;;;;;13.80;13.00;;;;;;;;;;5037399;28;20076;-58
2022/07/26 05:48:38;;;;;;;15.48;14.57;;;;;;;;;;5039245;28;20033;-58
2022/07/26 05:51:03;;;;;;;23.65;22.40;;;;;;;;;;5038325;28;20035;-59
2022/07/26 05:53:28;;;;;;;25.25;23.90;;;;;;;;;;5040146;28;20104;-59
2022/07/26 05:55:54;;;;;;;28.83;27.20;;;;;;;;;;5038361;28;20128;-59
2022/07/26 05:58:19;;;;;;;40.45;38.38;;;;;;;;;;5038418;28;20036;-57
2022/07/26 06:00:44;;;;;;;43.80;41.50;;;;;;;;;;5040402;28;20032;-58
2022/07/26 06:03:22;;;;;;;48.33;45.88;;;;;;;;;;5042410;28;20083;-58
2022/07/26 06:05:49;;;;;;;46.95;44.58;;;;;;;;;;5037505;28;20028;-58
2022/07/26 06:08:14;;;;;;;43.08;40.88;;;;;;;;;;5036965;28;20029;-58
2022/07/26 06:10:40;;;;;;;55.83;53.00;;;;;;;;;;5040696;28;20445;-60
2022/07/26 06:13:05;;;;;;;78.18;74.22;;;;;;;;;;5043059;28;20141;-59
2022/07/26 06:15:30;;;;;;;67.30;63.92;;;;;;;;;;5035327;28;20400;-59
2022/07/26 06:17:56;;;;;;;73.55;69.85;;;;;;;;;;5045068;28;20033;-59
2022/07/26 06:20:21;;;;;;;70.45;66.90;;;;;;;;;;5044369;28;20056;-59
2022/07/26 06:22:46;;;;;;;78.00;74.07;;;;;;;;;;5044690;28;20037;-58
2022/07/26 06:25:12;;;;;;;69.07;65.57;;;;;;;;;;5041080;28;20421;-58
2022/07/26 06:27:37;;;;;;;74.78;71.03;;;;;;;;;;5044139;28;20024;-59
2022/07/26 06:30:03;;;;;;;89.63;85.13;;;;;;;;;;5040258;28;20095;-59
2022/07/26 06:32:29;;;;;;;90.70;86.13;;;;;;;;;;5037022;28;20048;-58
2022/07/26 06:34:54;;;;;;;101.25;96.20;;;;;;;;;;5037225;28;20584;-60
2022/07/26 06:37:19;;;;;;;112.10;106.45;;;;;;;;;;5038690;28;20445;-58
2022/07/26 06:39:45;;;;;;;115.40;109.63;;;;;;;;;;5033158;28;20047;-58
2022/07/26 06:42:10;;;;;;;119.63;113.60;;;;;;;;;;5039958;28;20048;-59
2022/07/26 06:44:36;;;;;;;135.38;128.50;;;;;;;;;;5040917;28;20502;-60
2022/07/26 06:47:01;;;;;;;120.97;114.72;;;;;;;;;;5042659;28;20029;-60
2022/07/26 06:49:26;;;;;;;115.18;109.32;;;;;;;;;;5037824;28;20033;-57
2022/07/26 06:51:52;;;;;;;123.22;116.93;;;;;;;;;;5039597;28;20669;-58
2022/07/26 06:54:17;;;;;;;121.38;115.18;;;;;;;;;;5037354;28;20033;-58
2022/07/26 06:56:43;;;;;;;159.13;151.05;;;;;;;;;;5042420;28;20024;-58
2022/07/26 06:59:09;;;;;;;155.57;147.68;;;;;;;;;;5041614;28;20573;-57
2022/07/26 07:01:34;;;;;;;167.52;159.02;;;;;;;;;;5041780;28;20028;-57
2022/07/26 07:03:59;;;;;;;160.00;151.82;;;;;;;;;;5034836;28;20044;-56
2022/07/26 07:06:25;;;;;;;156.85;148.82;;;;;;;;;;5035858;28;20113;-56
2022/07/26 07:08:50;;;;;;;155.77;147.85;;;;;;;;;;5034809;28;20044;-57
2022/07/26 07:11:16;;;;;;;157.48;149.50;;;;;;;;;;5035205;28;20033;-58
2022/07/26 07:13:41;;;;;;;160.50;152.30;;;;;;;;;;5032936;28;20047;-58
2022/07/26 07:16:07;;;;;;;130.02;123.38;;;;;;;;;;5034370;28;20024;-58
2022/07/26 07:18:32;;;;;;;131.35;124.63;;;;;;;;;;5039126;28;20021;-56
2022/07/26 07:20:57;;;;;;;124.88;118.50;;;;;;;;;;5034377;28;20607;-56
2022/07/26 07:23:23;;;;;;;135.63;128.70;;;;;;;;;;5032836;28;20031;-58
2022/07/26 07:25:49;;;;;;;140.73;133.55;;;;;;;;;;5034667;28;20114;-58
2022/07/26 07:28:14;;;;;;;139.07;132.02;;;;;;;;;;5037902;28;20501;-57
2022/07/26 07:30:39;;;;;;;154.20;146.40;;;;;;;;;;5041321;28;20028;-57
2022/07/26 07:33:05;;;;;;;154.05;146.23;;;;;;;;;;5032899;28;20044;-57
2022/07/26 07:35:30;;;;;;;166.50;158.10;;;;;;;;;;5034345;28;20489;-58
2022/07/26 07:37:56;;;;;;;124.53;118.13;;;;;;;;;;5038908;28;20580;-56
2022/07/26 07:40:21;;;;;;;110.00;104.40;;;;;;;;;;5041566;28;20388;-59
2022/07/26 07:42:47;;;;;;;118.63;112.60;;;;;;;;;;5038338;28;20139;-59
2022/07/26 07:45:12;;;;;;;135.98;129.05;;;;;;;;;;5036329;28;20171;-56
2022/07/26 07:47:37;;;;;;;142.45;135.23;;;;;;;;;;5037944;28;20133;-59
2022/07/26 07:50:04;;;;;;;141.57;134.43;;;;;;;;;;5041197;28;20044;-59
2022/07/26 07:52:29;;;;;;;142.77;135.55;;;;;;;;;;5034966;28;20474;-57
2022/07/26 07:54:54;;;;;;;142.93;135.73;;;;;;;;;;5039302;28;20094;-59
2022/07/26 07:57:20;;;;;;;151.07;143.55;;;;;;;;;;5042940;28;20040;-58
2022/07/26 07:59:45;;;;;;;156.13;148.30;;;;;;;;;;5038507;28;20150;-59
2022/07/26 08:02:12;;;;;;;144.00;136.80;;;;;;;;;;5036826;28;20025;-59
2022/07/26 08:04:38;;;;;;;149.18;141.73;;;;;;;;;;5033862;28;20033;-59
2022/07/26 08:07:03;;;;;;;136.27;129.43;;;;;;;;;;5034361;28;20036;-59
2022/07/26 08:09:29;;;;;;;129.43;122.93;;;;;;;;;;5035972;28;20477;-56
2022/07/26 08:11:54;;;;;;;134.73;128.00;;;;;;;;;;5032274;28;20382;-56
2022/07/26 08:14:20;;;;;;;123.38;117.22;;;;;;;;;;5032016;28;20311;-57
2022/07/26 08:16:45;;;;;;;118.93;113.03;;;;;;;;;;5034191;28;20045;-56
2022/07/26 08:19:11;;;;;;;127.53;121.20;;;;;;;;;;5031680;28;20488;-57
2022/07/26 08:21:36;;;;;;;130.98;124.47;;;;;;;;;;5034328;28;20484;-57
2022/07/26 08:24:02;;;;;;;68.38;64.97;;;;;;;;;;5032426;28;20036;-57
2022/07/26 08:26:27;;;;;;;67.30;63.90;;;;;;;;;;5031864;28;20031;-59
2022/07/26 08:28:52;;;;;;;65.25;61.95;;;;;;;;;;5030176;28;20052;-56
2022/07/26 08:31:19;;;;;;;92.68;88.07;;;;;;;;;;5034938;28;20025;-57
2022/07/26 08:33:45;;;;;;;160.30;152.30;;;;;;;;;;5032191;28;20426;-57
2022/07/26 08:36:11;;;;;;;208.27;198.10;;;;;;;;;;5037559;28;20025;-57
2022/07/26 08:38:36;;;;;;;180.45;171.55;;;;;;;;;;5034713;28;20565;-57
2022/07/26 08:41:01;;;;;;;165.68;157.52;;;;;;;;;;5033083;28;20604;-57
2022/07/26 08:43:27;;;;;;;216.07;205.55;;;;;;;;;;5035615;28;20236;-57
2022/07/26 08:46:00;;;;;;;234.30;222.90;;;;;;;;;;5032142;28;20056;-58
2022/07/26 08:48:26;;;;;;;316.55;301.00;;;;;;;;;;5033901;28;20101;-57
2022/07/26 08:50:54;;;;;;;307.30;292.23;;;;;;;;;;5034898;28;20041;-59
2022/07/26 08:53:19;;;;;;;305.02;290.05;;;;;;;;;;5036751;28;20028;-58
2022/07/26 08:55:45;;;;;;;281.85;268.13;;;;;;;;;;5037782;28;20505;-59
2022/07/26 08:58:10;;;;;;;345.77;328.67;;;;;;;;;;5038841;28;20621;-58
2022/07/26 09:00:36;;;;;;;321.67;305.83;;;;;;;;;;5032738;28;20036;-58
2022/07/26 09:03:02;;;;;;;286.45;272.48;;;;;;;;;;5033480;28;20094;-57
2022/07/26 09:05:31;;;;;;;245.25;233.27;;;;;;;;;;5035947;28;20033;-59
2022/07/26 09:07:58;;;;;;;277.07;263.53;;;;;;;;;;5037865;28;20548;-59
2022/07/26 09:10:24;;;;;;;233.88;222.55;;;;;;;;;;5038298;28;20058;-58
2022/07/26 09:12:57;;;;;;;223.05;212.23;;;;;;;;;;5040007;28;20494;-58
2022/07/26 09:15:25;;;;;;;257.02;244.50;;;;;;;;;;5041184;28;20129;-57
2022/07/26 09:17:55;;;;;;;341.33;324.08;;;;;;;;;;5041001;28;20087;-57
2022/07/26 09:20:24;;;;;;;313.33;297.85;;;;;;;;;;5035152;28;20119;-60
2022/07/26 09:23:07;;;;;;;281.10;267.35;;;;;;;;;;5038156;28;20026;-57
2022/07/26 09:25:38;;;;;;;339.27;322.20;;;;;;;;;;5035104;28;20025;-57
2022/07/26 09:28:24;;;;;;;344.00;327.00;;;;;;;;;;5038771;28;20033;-57
2022/07/26 09:30:52;;;;;;;348.58;331.23;;;;;;;;;;5041691;28;20099;-57
2022/07/26 09:33:17;;;;;;;354.20;336.52;;;;;;;;;;5039410;28;20504;-57
2022/07/26 09:35:59;;;;;;;358.77;340.80;;;;;;;;;;5043962;28;20026;-58
2022/07/26 09:38:25;;;;;;;355.55;337.58;;;;;;;;;;5043788;28;20072;-56
2022/07/26 09:40:54;;;;;;;359.77;341.65;;;;;;;;;;5039488;28;20064;-57
2022/07/26 09:43:19;;;;;;;386.67;367.25;;;;;;;;;;5040739;28;20083;-57
2022/07/26 09:45:45;;;;;;;357.10;339.13;;;;;;;;;;5044848;28;20363;-57
2022/07/26 09:48:10;;;;;;;371.00;352.27;;;;;;;;;;5041967;28;20029;-57
2022/07/26 09:50:36;;;;;;;378.35;359.20;;;;;;;;;;5045278;28;20040;-56
2022/07/26 09:53:11;;;;;;;379.38;360.15;;;;;;;;;;5039431;28;20029;-56
2022/07/26 09:55:54;;;;;;;388.45;368.60;;;;;;;;;;5039264;28;20039;-57
2022/07/26 09:58:20;;;;;;;381.38;361.92;;;;;;;;;;5044457;28;20060;-57
2022/07/26 10:00:46;;;;;;;349.63;332.05;;;;;;;;;;5042264;28;20032;-57
2022/07/26 10:03:11;;;;;;;376.52;357.30;;;;;;;;;;5043744;28;20034;-58
2022/07/26 10:05:37;;;;;;;353.15;335.33;;;;;;;;;;5043106;28;20079;-57
2022/07/26 10:08:04;;;;;;;375.05;355.95;;;;;;;;;;5039395;28;20037;-57
2022/07/26 10:10:32;;;;;;;370.17;351.35;;;;;;;;;;5040316;28;20450;-57
2022/07/26 10:13:01;;;;;;;371.83;352.92;;;;;;;;;;5041163;28;20566;-58
2022/07/26 10:15:33;;;;;;;369.70;350.88;;;;;;;;;;5049769;28;20018;-57
2022/07/26 10:17:58;;;;;;;374.67;355.55;;;;;;;;;;5036443;28;20040;-57
2022/07/26 10:20:42;;;;;;;362.77;344.25;;;;;;;;;;5039127;28;20343;-58
2022/07/26 10:23:35;;;;;;;361.83;343.42;;;;;;;;;;5036072;28;20853;-57
2022/07/26 10:26:02;;;;;;;356.50;338.42;;;;;;;;;;5036985;28;20149;-57
2022/07/26 10:28:29;;;;;;;358.90;340.75;;;;;;;;;;5038039;28;20040;-57
2022/07/26 10:31:19;;;;;;;357.92;339.70;;;;;;;;;;5042316;28;20037;-58
2022/07/26 10:33:47;;;;;;;356.35;338.20;;;;;;;;;;5040855;28;20509;-57
2022/07/26 10:36:29;;;;;;;336.92;319.85;;;;;;;;;;5039652;28;20543;-57
2022/07/26 10:39:11;;;;;;;320.88;304.73;;;;;;;;;;5041432;28;20033;-57
2022/07/26 10:41:40;;;;;;;328.58;311.98;;;;;;;;;;5041383;28;20106;-58
2022/07/26 10:44:11;;;;;;;328.88;312.33;;;;;;;;;;5039355;28;20101;-58
2022/07/26 10:46:54;;;;;;;339.45;322.27;;;;;;;;;;5044294;28;20024;-58
2022/07/26 10:49:19;;;;;;;340.05;322.88;;;;;;;;;;5042159;28;20138;-58
2022/07/26 10:51:44;;;;;;;325.58;309.20;;;;;;;;;;5042860;28;20304;-58
2022/07/26 10:54:12;;;;;;;304.95;289.73;;;;;;;;;;5038377;28;20351;-58
2022/07/26 10:56:38;;;;;;;295.95;281.23;;;;;;;;;;5039000;28;20053;-58
2022/07/26 10:59:04;;;;;;;273.67;260.13;;;;;;;;;;5041596;28;20086;-58
2022/07/26 11:01:33;;;;;;;280.90;267.00;;;;;;;;;;5040039;28;20108;-58
2022/07/26 11:03:59;;;;;;;246.27;234.10;;;;;;;;;;5038291;28;20045;-58
2022/07/26 11:06:27;;;;;;;256.73;244.02;;;;;;;;;;5041213;28;20033;-57
2022/07/26 11:08:54;;;;;;;274.67;261.05;;;;;;;;;;5038653;28;20421;-58
2022/07/26 11:11:31;;;;;;;254.82;242.20;;;;;;;;;;5035709;28;20029;-58
2022/07/26 11:14:03;;;;;;;269.27;255.98;;;;;;;;;;5038882;28;20037;-58
2022/07/26 11:16:39;;;;;;;281.65;267.73;;;;;;;;;;5040772;28;20061;-57
2022/07/26 11:19:14;;;;;;;293.27;278.65;;;;;;;;;;5037808;28;20070;-58
2022/07/26 11:21:40;;;;;;;309.23;293.80;;;;;;;;;;5041500;28;20037;-58
2022/07/26 11:24:06;;;;;;;322.10;305.90;;;;;;;;;;5037655;28;20036;-58
2022/07/26 11:26:40;;;;;;;297.15;282.42;;;;;;;;;;5038318;28;20022;-57
2022/07/26 11:29:05;;;;;;;299.27;284.33;;;;;;;;;;5037004;28;20156;-58
2022/07/26 11:31:41;;;;;;;327.77;311.48;;;;;;;;;;5035474;28;20205;-57
2022/07/26 11:34:18;;;;;;;314.10;298.50;;;;;;;;;;5040711;28;20040;-57
2022/07/26 11:36:45;;;;;;;304.40;289.20;;;;;;;;;;5040636;28;20048;-58
2022/07/26 11:39:12;;;;;;;336.20;319.42;;;;;;;;;;5041132;28;20024;-59
2022/07/26 11:41:39;;;;;;;294.05;279.50;;;;;;;;;;5033960;28;20284;-57
2022/07/26 11:44:05;;;;;;;297.50;282.70;;;;;;;;;;5032176;28;20044;-57
2022/07/26 11:46:37;;;;;;;314.98;299.33;;;;;;;;;;5035971;28;20365;-57
2022/07/26 11:49:04;;;;;;;287.85;273.65;;;;;;;;;;5033467;28;20591;-57
2022/07/26 11:51:30;;;;;;;291.73;277.27;;;;;;;;;;5030321;28;20037;-58
2022/07/26 11:53:58;;;;;;;351.08;333.15;;;;;;;;;;5034343;28;20071;-58
2022/07/26 11:56:25;;;;;;;330.42;313.73;;;;;;;;;;5034160;28;20357;-58
2022/07/26 11:58:53;;;;;;;319.42;303.35;;;;;;;;;;5033557;28;20173;-58
2022/07/26 12:01:20;;;;;;;319.02;302.92;;;;;;;;;;5031728;28;20041;-58
2022/07/26 12:03:49;;;;;;;304.85;289.65;;;;;;;;;;5031393;28;20116;-58
2022/07/26 12:06:25;;;;;;;290.20;275.75;;;;;;;;;;5038866;28;20113;-58
2022/07/26 12:08:57;;;;;;;279.70;265.85;;;;;;;;;;5038514;28;20056;-58
2022/07/26 12:11:35;;;;;;;340.98;323.75;;;;;;;;;;5032817;28;20028;-58
2022/07/26 12:14:01;;;;;;;283.48;269.58;;;;;;;;;;5031204;28;20502;-59
2022/07/26 12:16:44;;;;;;;346.55;328.83;;;;;;;;;;5032061;28;20200;-59
2022/07/26 12:19:15;;;;;;;347.42;329.77;;;;;;;;;;5033428;28;20160;-59
2022/07/26 12:21:45;;;;;;;339.05;321.92;;;;;;;;;;5028366;28;20127;-59
2022/07/26 12:24:12;;;;;;;329.35;312.73;;;;;;;;;;5035736;28;20044;-58
2022/07/26 12:26:38;;;;;;;321.13;304.95;;;;;;;;;;5035531;28;20036;-58
2022/07/26 12:32:35;;;;;;;294.10;279.50;;;;;;;;;;5028463;28;20030;-58
2022/07/26 12:35:10;;;;;;;300.95;285.98;;;;;;;;;;5024006;28;20041;-58
2022/07/26 12:37:46;;;;;;;293.67;279.15;;;;;;;;;;5032261;28;20122;-59
2022/07/26 12:40:14;;;;;;;321.42;305.30;;;;;;;;;;5032605;28;20567;-59
2022/07/26 12:42:53;;;;;;;288.55;274.25;;;;;;;;;;5031289;28;20091;-59
2022/07/26 12:45:24;;;;;;;317.75;301.83;;;;;;;;;;5032572;28;20425;-59
2022/07/26 12:47:54;;;;;;;292.08;277.63;;;;;;;;;;5029030;28;20052;-58
2022/07/26 12:50:22;;;;;;;297.52;282.73;;;;;;;;;;5033369;28;20064;-59
2022/07/26 12:52:47;;;;;;;276.25;262.65;;;;;;;;;;5030820;28;20697;-58
2022/07/26 12:55:17;;;;;;;317.23;301.40;;;;;;;;;;5030441;28;20048;-58
2022/07/26 12:57:44;;;;;;;306.27;291.02;;;;;;;;;;5037215;28;20041;-58
2022/07/26 13:00:11;;;;;;;306.08;290.85;;;;;;;;;;5036333;28;20447;-58
2022/07/26 13:02:37;;;;;;;302.13;287.05;;;;;;;;;;5036432;28;20036;-58
2022/07/26 13:05:03;;;;;;;294.75;280.13;;;;;;;;;;5033832;28;20693;-58
2022/07/26 13:07:29;;;;;;;339.92;322.77;;;;;;;;;;5040191;28;20036;-58
2022/07/26 13:09:54;;;;;;;301.10;286.02;;;;;;;;;;5037599;28;20542;-58
2022/07/26 13:12:21;;;;;;;317.98;301.92;;;;;;;;;;5036159;28;20044;-58
2022/07/26 13:14:46;;;;;;;339.63;322.35;;;;;;;;;;5041638;28;20288;-58
2022/07/26 13:17:11;;;;;;;311.42;295.73;;;;;;;;;;5044532;28;20517;-58
2022/07/26 13:19:37;;;;;;;321.88;305.55;;;;;;;;;;5038781;28;20032;-59
2022/07/26 13:22:04;;;;;;;319.70;303.58;;;;;;;;;;5039934;28;20037;-59
2022/07/26 13:24:30;;;;;;;349.08;331.38;;;;;;;;;;5040271;28;20108;-60
2022/07/26 13:26:56;;;;;;;325.92;309.40;;;;;;;;;;5038945;28;20043;-59
2022/07/26 13:29:22;;;;;;;321.13;304.90;;;;;;;;;;5038968;28;20025;-59
2022/07/26 13:31:49;;;;;;;328.80;312.25;;;;;;;;;;5049649;28;20494;-58
2022/07/26 13:34:15;;;;;;;347.85;330.10;;;;;;;;;;5047600;28;20029;-58
2022/07/26 13:36:41;;;;;;;328.65;312.10;;;;;;;;;;5036345;28;20103;-60
2022/07/26 13:39:06;;;;;;;313.80;298.15;;;;;;;;;;5038188;28;20044;-58
2022/07/26 13:41:32;;;;;;;313.40;297.65;;;;;;;;;;5043709;28;20031;-58
2022/07/26 13:43:58;;;;;;;335.77;318.85;;;;;;;;;;5043121;28;20028;-58
2022/07/26 13:46:25;;;;;;;313.92;296.25;;;;;;;;;;5043214;28;20431;-58
2022/07/26 13:48:51;;;;;;;331.95;315.08;;;;;;;;;;5042556;28;20062;-58
2022/07/26 13:51:16;;;;;;;323.95;307.60;;;;;;;;;;5048503;28;20032;-58
2022/07/26 13:53:42;;;;;;;329.30;312.55;;;;;;;;;;5043455;28;20030;-58
2022/07/26 13:56:07;;;;;;;297.83;282.80;;;;;;;;;;5041159;28;20031;-58
2022/07/26 13:58:34;;;;;;;305.40;289.92;;;;;;;;;;5042748;28;20025;-58
2022/07/26 14:01:00;;;;;;;318.10;302.02;;;;;;;;;;5045924;28;20041;-58